»·PEaware :: N520MJ KVNY-KSBP

N520MJ :: KVNY-KSBP

FLIGHT INFORMATION

Flight Status: Arrived
Operator: Privately registered:
United States
More flights under this callsign
Pilot: Manuel P. (9695)
Aircraft: BOMBARDIER BD-100 CHALLENGER 300
(CL30)
More flights by this aircraft type
Origin: KVNY Van Nuys
United States
Destination: KSBP San Luis Co Regl
United States
More flights between these airports :: More routes between these airports
Route: VNY V597 RZS V25 WYNNR
File this flight plan on PilotEdge
Remarks:
Altitude:
(Current/Filed)
8,500ft
Speed:
(Current/Filed)
400kts
Departed: 21-Jul-17 03:27 PM
Arrived: 21-Jul-17 03:58 PM
Distance/Time
Traveled:
123nm/0:31
Distance/Time
To Go:
Arrived

Flight Plot

Page will automatically refresh every two minutes.

Flight plan parsing failed; only flown route is shown


Map Options




Map Legend


Flown Route
Filed Route
Departure Airport
Arrival Airport
Navaid (VOR, NDB)
Fix

Horizontal Profiles

Position Reports

Time Latitude Longitude Heading Altitude Ground
Speed
21-Jul-17 15:08 34.209529 -118.487379 137 808ft 0kts
21-Jul-17 15:09 34.209529 -118.487379 137 808ft 0kts
21-Jul-17 15:10 34.209529 -118.487379 137 808ft 0kts
21-Jul-17 15:11 34.209529 -118.487379 137 808ft 0kts
21-Jul-17 15:12 34.209529 -118.487379 137 808ft 0kts
21-Jul-17 15:13 34.209529 -118.487379 137 808ft 0kts
21-Jul-17 15:14 34.209529 -118.487379 137 808ft 0kts
21-Jul-17 15:15 34.209529 -118.487379 137 808ft 0kts
21-Jul-17 15:16 34.209529 -118.487379 137 808ft 0kts
21-Jul-17 15:17 34.209529 -118.487379 137 808ft 0kts
21-Jul-17 15:18 34.209529 -118.487379 137 808ft 0kts
21-Jul-17 15:19 34.209529 -118.487379 137 808ft 0kts
21-Jul-17 15:20 34.209529 -118.487379 137 808ft 0kts
21-Jul-17 15:21 34.209529 -118.487379 137 808ft 0kts
21-Jul-17 15:22 34.209529 -118.487379 137 808ft 0kts
21-Jul-17 15:23 34.209529 -118.487379 137 808ft 0kts
21-Jul-17 15:24 34.209529 -118.487379 137 808ft 0kts
21-Jul-17 15:25 34.209526 -118.487375 137 808ft 0kts
21-Jul-17 15:26 34.210024 -118.487852 357 808ft 7kts
21-Jul-17 15:27 34.212204 -118.488567 355 808ft 11kts
21-Jul-17 15:28 34.215974 -118.489025 348 807ft 18kts
21-Jul-17 15:29 34.218864 -118.489804 274 808ft 6kts
21-Jul-17 15:30 34.211437 -118.490483 175 808ft 132kts
21-Jul-17 15:31 34.172802 -118.509166 247 3823ft 187kts
21-Jul-17 15:32 34.190852 -118.575312 305 6452ft 238kts
21-Jul-17 15:33 34.235897 -118.640194 309 8495ft 293kts
21-Jul-17 15:34 34.282502 -118.728832 299 8475ft 320kts
21-Jul-17 15:35 34.326820 -118.819817 299 8487ft 306kts
21-Jul-17 15:36 34.360038 -118.909585 282 8502ft 284kts
21-Jul-17 15:37 34.376739 -118.999187 282 8486ft 264kts
21-Jul-17 15:38 34.392713 -119.088418 281 10190ft 300kts
21-Jul-17 15:39 34.412244 -119.200332 281 10620ft 379kts
21-Jul-17 15:40 34.433019 -119.320598 281 10489ft 347kts
21-Jul-17 15:41 34.451714 -119.429612 281 10509ft 318kts
21-Jul-17 15:42 34.469692 -119.535121 281 10530ft 339kts
21-Jul-17 15:43 34.489623 -119.652761 281 10520ft 361kts
21-Jul-17 15:44 34.519843 -119.764701 317 10509ft 353kts
21-Jul-17 15:45 34.599749 -119.832482 326 10521ft 349kts
21-Jul-17 15:46 34.681991 -119.895034 327 10527ft 362kts
21-Jul-17 15:47 34.768207 -119.958630 328 10509ft 341kts
21-Jul-17 15:48 34.839606 -120.010917 327 8653ft 266kts
21-Jul-17 15:49 34.894614 -120.051204 327 7656ft 227kts
21-Jul-17 15:50 34.951055 -120.093770 327 6993ft 253kts
21-Jul-17 15:51 35.013439 -120.141380 327 6523ft 265kts
21-Jul-17 15:52 35.072766 -120.186600 327 6516ft 244kts
21-Jul-17 15:53 35.115534 -120.243958 286 5931ft 254kts
21-Jul-17 15:54 35.113389 -120.333278 284 4143ft 274kts
21-Jul-17 15:55 35.114874 -120.414417 268 3980ft 210kts
21-Jul-17 15:56 35.133953 -120.470786 306 3994ft 171kts
21-Jul-17 15:57 35.163011 -120.513314 312 3072ft 159kts
21-Jul-17 15:58 35.187441 -120.554897 309 2091ft 143kts
21-Jul-17 15:59 35.209053 -120.591752 308 1171ft 129kts
21-Jul-17 16:00 35.228882 -120.626157 306 368ft 125kts
21-Jul-17 16:01 35.239322 -120.644129 334 218ft 4kts
21-Jul-17 16:02 35.238914 -120.642058 132 217ft 13kts
21-Jul-17 16:03 35.238495 -120.640508 101 218ft 0kts
21-Jul-17 16:04 35.238533 -120.639791 86 218ft 0kts
21-Jul-17 16:05 35.238533 -120.639791 86 218ft 0kts
21-Jul-17 16:06 35.238533 -120.639791 86 218ft 0kts
21-Jul-17 16:07 35.238533 -120.639791 86 218ft 0kts

Navigation Log

Ident Type
Flight plan parsing failed, navigation log unavailable